createdAt,value
2022-11-15T00:00:36.933Z,84.55
2022-11-15T00:01:37.005Z,84.66
2022-11-15T00:02:37.290Z,85.06
2022-11-15T00:03:36.949Z,85.21
2022-11-15T00:04:36.885Z,85.21
2022-11-15T00:05:36.883Z,85.82
2022-11-15T00:06:36.865Z,85.72
2022-11-15T00:07:55.043Z,85.93
2022-11-15T00:08:36.858Z,86.03
2022-11-15T00:09:39.913Z,86.13
2022-11-15T00:10:36.830Z,86.13
2022-11-15T00:11:36.813Z,86.33
2022-11-15T00:12:36.803Z,86.33
2022-11-15T00:13:36.795Z,86.44
2022-11-15T00:14:36.786Z,86.44
2022-11-15T00:15:36.804Z,86.44
2022-11-15T00:16:37.050Z,86.54
2022-11-15T00:17:36.746Z,86.65
2022-11-15T00:18:36.746Z,86.54
2022-11-15T00:19:36.720Z,86.44
2022-11-15T00:20:36.738Z,86.54
2022-11-15T00:21:36.743Z,86.44
2022-11-15T00:22:36.705Z,86.24
2022-11-15T00:23:36.979Z,86.33
2022-11-15T00:24:36.691Z,86.13
2022-11-15T00:25:36.675Z,86.03
2022-11-15T00:26:36.665Z,86.09
2022-11-15T00:27:36.671Z,86.09
2022-11-15T00:28:36.650Z,86.19
2022-11-15T00:29:36.618Z,86.09
2022-11-15T00:30:36.904Z,86.09
2022-11-15T00:31:36.621Z,86.19
2022-11-15T00:32:36.601Z,86.30
2022-11-15T00:33:36.604Z,86.30
2022-11-15T00:34:36.566Z,86.30
2022-11-15T00:35:36.557Z,86.30
2022-11-15T00:36:36.551Z,86.40
2022-11-15T00:37:36.811Z,86.40
2022-11-15T00:38:36.528Z,85.99
2022-11-15T00:39:36.533Z,86.09
2022-11-15T00:40:36.506Z,85.99
2022-11-15T00:41:36.491Z,86.09
2022-11-15T00:42:36.490Z,86.33
2022-11-15T00:43:36.465Z,86.19
2022-11-15T00:44:36.748Z,86.13
2022-11-15T00:45:36.539Z,86.19
2022-11-15T00:46:36.453Z,86.30
2022-11-15T00:47:36.436Z,86.30
2022-11-15T00:48:36.427Z,86.19
2022-11-15T00:49:36.400Z,86.09
2022-11-15T00:50:36.405Z,86.19
2022-11-15T00:51:36.971Z,86.19
2022-11-15T00:52:36.398Z,86.09
2022-11-15T00:53:36.359Z,86.19
2022-11-15T00:54:36.353Z,86.09
2022-11-15T00:55:36.351Z,86.09
2022-11-15T00:56:36.337Z,86.09
2022-11-15T00:57:36.354Z,86.09
2022-11-15T00:58:36.608Z,86.09
2022-11-15T00:59:36.314Z,85.99
2022-11-15T01:00:36.367Z,85.99
2022-11-15T01:01:36.305Z,85.99
2022-11-15T01:02:36.273Z,85.89
2022-11-15T01:03:36.294Z,85.89
2022-11-15T01:04:36.254Z,85.89
2022-11-15T01:05:36.512Z,85.89
2022-11-15T01:06:36.237Z,85.89
2022-11-15T01:07:36.275Z,85.78
2022-11-15T01:08:36.209Z,85.89
2022-11-15T01:09:36.218Z,85.78
2022-11-15T01:10:36.202Z,85.99
2022-11-15T01:11:36.167Z,85.89
2022-11-15T01:12:36.457Z,85.89
2022-11-15T01:13:36.166Z,85.78
2022-11-15T01:14:36.147Z,85.89
2022-11-15T01:15:36.168Z,85.89
2022-11-15T01:16:36.127Z,85.89
2022-11-15T01:17:36.113Z,85.89
2022-11-15T01:18:36.105Z,85.99
2022-11-15T01:19:36.378Z,85.99
2022-11-15T01:20:36.098Z,85.99
2022-11-15T01:21:36.096Z,86.09
2022-11-15T01:22:36.064Z,86.19
2022-11-15T01:23:36.048Z,86.09
2022-11-15T01:24:36.036Z,86.09
2022-11-15T01:25:36.035Z,86.09
2022-11-15T01:26:36.319Z,86.05
2022-11-15T01:27:36.035Z,86.19
2022-11-15T01:28:36.039Z,86.30
2022-11-15T01:29:35.975Z,86.36
2022-11-15T01:30:35.976Z,86.46
2022-11-15T01:31:35.954Z,86.36
2022-11-15T01:32:35.955Z,86.46
2022-11-15T01:33:36.251Z,86.36
2022-11-15T01:34:35.922Z,86.36
2022-11-15T01:35:35.915Z,86.46
2022-11-15T01:36:35.923Z,86.36
2022-11-15T01:37:35.901Z,86.87
2022-11-15T01:38:35.888Z,86.57
2022-11-15T01:39:35.923Z,86.46
2022-11-15T01:40:36.153Z,86.46
2022-11-15T01:41:35.848Z,86.66
2022-11-15T01:42:35.846Z,86.77
2022-11-15T01:43:35.840Z,86.77
2022-11-15T01:44:35.831Z,86.87
2022-11-15T01:45:35.844Z,86.73
2022-11-15T01:46:35.800Z,86.83
2022-11-15T01:47:36.136Z,86.93
2022-11-15T01:48:35.773Z,87.14
2022-11-15T01:49:35.779Z,87.14
2022-11-15T01:50:35.760Z,87.04
2022-11-15T01:51:35.780Z,87.14
2022-11-15T01:52:35.746Z,87.45
2022-11-15T01:53:35.737Z,87.55
2022-11-15T01:54:36.083Z,87.45
2022-11-15T01:55:35.706Z,87.34
2022-11-15T01:56:35.688Z,87.96
2022-11-15T01:57:36.005Z,87.71
2022-11-15T01:58:35.683Z,87.41
2022-11-15T01:59:35.666Z,87.71
2022-11-15T02:00:35.719Z,87.51
2022-11-15T02:01:35.944Z,87.71
2022-11-15T02:02:35.635Z,87.82
2022-11-15T02:03:35.660Z,88.02
2022-11-15T02:04:35.605Z,88.02
2022-11-15T02:05:35.596Z,88.02
2022-11-15T02:06:35.587Z,88.12
2022-11-15T02:07:35.646Z,88.02
2022-11-15T02:08:35.861Z,88.23
2022-11-15T02:09:35.606Z,88.33
2022-11-15T02:10:35.543Z,88.53
2022-11-15T02:11:35.564Z,88.23
2022-11-15T02:12:35.528Z,88.08
2022-11-15T02:13:35.534Z,88.29
2022-11-15T02:14:35.522Z,88.29
2022-11-15T02:15:35.828Z,88.59
2022-11-15T02:16:35.514Z,88.49
2022-11-15T02:17:35.471Z,88.49
2022-11-15T02:18:35.459Z,88.59
2022-11-15T02:19:35.448Z,88.59
2022-11-15T02:20:35.451Z,88.70
2022-11-15T02:21:35.450Z,88.70
2022-11-15T02:22:35.746Z,88.90
2022-11-15T02:23:35.404Z,88.90
2022-11-15T02:24:35.460Z,88.80
2022-11-15T02:25:35.381Z,88.80
2022-11-15T02:26:35.417Z,89.00
2022-11-15T02:27:35.384Z,89.27
2022-11-15T02:28:35.359Z,89.06
2022-11-15T02:29:35.619Z,89.17
2022-11-15T02:30:35.346Z,89.06
2022-11-15T02:31:35.318Z,89.17
2022-11-15T02:32:35.314Z,89.27
2022-11-15T02:33:35.345Z,89.37
2022-11-15T02:34:35.294Z,89.27
2022-11-15T02:35:35.302Z,89.37
2022-11-15T02:36:35.563Z,89.37
2022-11-15T02:37:35.295Z,89.47
2022-11-15T02:38:35.247Z,89.47
2022-11-15T02:39:35.287Z,89.27
2022-11-15T02:40:35.236Z,89.47
2022-11-15T02:41:35.212Z,89.53
2022-11-15T02:42:35.236Z,89.43
2022-11-15T02:43:35.549Z,89.43
2022-11-15T02:44:35.173Z,89.53
2022-11-15T02:45:35.223Z,89.43
2022-11-15T02:46:35.173Z,89.53
2022-11-15T02:47:35.193Z,89.53
2022-11-15T02:48:35.145Z,89.64
2022-11-15T02:49:35.138Z,89.74
2022-11-15T02:50:35.419Z,89.84
2022-11-15T02:51:35.169Z,90.25
2022-11-15T02:52:35.095Z,90.05
2022-11-15T02:53:35.161Z,90.36
2022-11-15T02:54:35.085Z,90.15
2022-11-15T02:55:35.073Z,90.05
2022-11-15T02:56:35.071Z,90.15
2022-11-15T02:57:35.357Z,90.36
2022-11-15T02:58:35.035Z,90.25
2022-11-15T02:59:35.035Z,90.31
2022-11-15T03:00:35.093Z,90.21
2022-11-15T03:01:35.010Z,90.31
2022-11-15T03:02:35.003Z,90.31
2022-11-15T03:03:35.416Z,90.21
2022-11-15T03:04:36.268Z,90.11
2022-11-15T03:05:34.968Z,90.31
2022-11-15T03:06:34.949Z,90.31
2022-11-15T03:07:35.002Z,90.52
2022-11-15T03:08:34.941Z,90.52
2022-11-15T03:09:34.951Z,90.41
2022-11-15T03:10:35.450Z,90.72
2022-11-15T03:11:35.211Z,90.62
2022-11-15T03:12:34.913Z,90.62
2022-11-15T03:13:34.940Z,90.52
2022-11-15T03:14:34.889Z,90.52
2022-11-15T03:15:34.929Z,90.52
2022-11-15T03:16:34.918Z,90.72
2022-11-15T03:17:34.833Z,90.72
2022-11-15T03:18:35.101Z,90.72
2022-11-15T03:19:34.861Z,90.82
2022-11-15T03:20:34.805Z,90.82
2022-11-15T03:21:34.827Z,90.82
2022-11-15T03:22:34.773Z,90.88
2022-11-15T03:23:34.906Z,90.88
2022-11-15T03:24:34.763Z,90.88
2022-11-15T03:25:35.047Z,90.78
2022-11-15T03:26:34.738Z,90.88
2022-11-15T03:27:34.757Z,91.09
2022-11-15T03:28:34.734Z,91.09
2022-11-15T03:29:34.742Z,90.99
2022-11-15T03:30:34.765Z,91.09
2022-11-15T03:31:34.710Z,91.09
2022-11-15T03:32:34.963Z,91.09
2022-11-15T03:33:34.714Z,91.19
2022-11-15T03:34:34.654Z,91.19
2022-11-15T03:35:34.646Z,91.29
2022-11-15T03:36:34.621Z,91.19
2022-11-15T03:37:34.631Z,91.29
2022-11-15T03:38:34.645Z,91.35
2022-11-15T03:39:34.902Z,91.46
2022-11-15T03:40:34.604Z,91.35
2022-11-15T03:41:34.569Z,91.46
2022-11-15T03:42:34.575Z,91.35
2022-11-15T03:43:34.806Z,91.46
2022-11-15T03:44:34.563Z,91.56
2022-11-15T03:45:34.634Z,91.35
2022-11-15T03:46:34.805Z,91.46
2022-11-15T03:47:34.560Z,91.66
2022-11-15T03:48:34.505Z,91.35
2022-11-15T03:49:34.504Z,91.46
2022-11-15T03:50:34.485Z,91.46
2022-11-15T03:51:34.503Z,91.46
2022-11-15T03:52:34.462Z,91.35
2022-11-15T03:53:34.803Z,91.31
2022-11-15T03:54:34.433Z,91.35
2022-11-15T03:55:34.414Z,91.41
2022-11-15T03:56:34.414Z,91.41
2022-11-15T03:57:34.452Z,91.20
2022-11-15T03:58:34.386Z,91.31
2022-11-15T03:59:34.377Z,91.41
2022-11-15T04:00:34.683Z,91.41
2022-11-15T04:01:34.451Z,91.31
2022-11-15T04:02:34.355Z,91.41
2022-11-15T04:03:34.723Z,91.41
2022-11-15T04:04:34.329Z,91.41
2022-11-15T04:05:34.328Z,91.52
2022-11-15T04:06:34.306Z,91.61
2022-11-15T04:07:34.459Z,91.61
2022-11-15T04:08:34.281Z,91.61
2022-11-15T04:09:34.595Z,91.61
2022-11-15T04:10:34.255Z,91.72
2022-11-15T04:11:34.254Z,91.82
2022-11-15T04:12:34.533Z,91.82
2022-11-15T04:13:34.579Z,91.82
2022-11-15T04:14:34.221Z,92.02
2022-11-15T04:15:34.246Z,91.92
2022-11-15T04:16:34.442Z,92.02
2022-11-15T04:17:34.208Z,91.92
2022-11-15T04:18:34.175Z,91.92
2022-11-15T04:19:34.175Z,92.02
2022-11-15T04:20:34.173Z,92.02
2022-11-15T04:21:34.202Z,92.02
2022-11-15T04:22:34.144Z,92.23
2022-11-15T04:23:34.542Z,92.13
2022-11-15T04:24:34.397Z,92.13
2022-11-15T04:25:34.110Z,92.02
2022-11-15T04:26:34.103Z,92.13
2022-11-15T04:27:34.137Z,92.23
2022-11-15T04:28:34.078Z,92.23
2022-11-15T04:29:34.071Z,92.23
2022-11-15T04:30:34.049Z,92.13
2022-11-15T04:31:34.336Z,92.23
2022-11-15T04:32:34.036Z,92.29
2022-11-15T04:33:34.641Z,92.29
2022-11-15T04:34:34.040Z,92.08
2022-11-15T04:35:34.029Z,92.08
2022-11-15T04:36:34.005Z,91.98
2022-11-15T04:37:34.020Z,92.29
2022-11-15T04:38:34.289Z,92.08
2022-11-15T04:39:34.006Z,92.08
2022-11-15T04:40:33.992Z,91.98
2022-11-15T04:41:33.944Z,91.98
2022-11-15T04:42:33.995Z,91.98
2022-11-15T04:43:34.396Z,91.94
2022-11-15T04:44:33.938Z,91.83
2022-11-15T04:45:34.235Z,91.94
2022-11-15T04:46:33.928Z,91.83
2022-11-15T04:47:33.902Z,91.94
2022-11-15T04:48:33.861Z,91.83
2022-11-15T04:49:33.853Z,91.83
2022-11-15T04:50:33.857Z,91.83
2022-11-15T04:51:33.885Z,91.94
2022-11-15T04:52:34.122Z,91.83
2022-11-15T04:53:34.215Z,91.83
2022-11-15T04:54:33.806Z,91.83
2022-11-15T04:55:33.790Z,91.74
2022-11-15T04:56:33.783Z,91.83
2022-11-15T04:57:33.819Z,91.69
2022-11-15T04:58:33.752Z,91.69
2022-11-15T04:59:34.050Z,91.59
2022-11-15T05:00:33.754Z,91.49
2022-11-15T05:01:33.847Z,91.59
2022-11-15T05:02:33.717Z,91.59
2022-11-15T05:03:34.133Z,91.59
2022-11-15T05:04:33.690Z,91.49
2022-11-15T05:05:33.706Z,91.69
2022-11-15T05:06:34.019Z,91.69
2022-11-15T05:07:33.726Z,91.69
2022-11-15T05:08:33.661Z,91.69
2022-11-15T05:09:33.730Z,91.69
2022-11-15T05:10:33.628Z,91.69
2022-11-15T05:11:33.625Z,91.59
2022-11-15T05:12:33.620Z,91.59
2022-11-15T05:13:34.131Z,91.59
2022-11-15T05:14:33.597Z,91.59
2022-11-15T05:15:33.649Z,91.59
2022-11-15T05:16:33.615Z,91.69
2022-11-15T05:17:33.651Z,91.59
2022-11-15T05:18:33.640Z,91.49
2022-11-15T05:19:33.551Z,91.55
2022-11-15T05:20:33.818Z,91.24
2022-11-15T05:21:34.027Z,91.35
2022-11-15T05:22:33.528Z,91.35
2022-11-15T05:23:33.825Z,91.24
2022-11-15T05:24:33.490Z,91.24
2022-11-15T05:25:33.494Z,91.24
2022-11-15T05:26:33.511Z,91.14
2022-11-15T05:27:33.821Z,91.14
2022-11-15T05:28:33.474Z,91.14
2022-11-15T05:29:33.448Z,91.03
2022-11-15T05:30:33.430Z,91.14
2022-11-15T05:31:33.434Z,91.03
2022-11-15T05:32:33.410Z,90.94
2022-11-15T05:33:33.824Z,90.89
2022-11-15T05:34:33.710Z,90.89
2022-11-15T05:35:33.373Z,90.89
2022-11-15T05:36:33.365Z,90.79
2022-11-15T05:37:33.362Z,90.79
2022-11-15T05:38:33.337Z,90.69
2022-11-15T05:39:33.382Z,90.59
2022-11-15T05:40:33.319Z,90.59
2022-11-15T05:41:33.612Z,90.59
2022-11-15T05:42:33.307Z,90.48
2022-11-15T05:43:33.430Z,90.48
2022-11-15T05:44:33.274Z,90.59
2022-11-15T05:45:33.842Z,90.48
2022-11-15T05:46:33.252Z,90.38
2022-11-15T05:47:33.253Z,90.48
2022-11-15T05:48:33.234Z,90.48
2022-11-15T05:49:33.244Z,90.48
2022-11-15T05:50:33.220Z,90.48
2022-11-15T05:51:33.293Z,90.48
2022-11-15T05:52:33.197Z,90.44
2022-11-15T05:53:33.570Z,90.48
2022-11-15T05:54:34.493Z,90.38
2022-11-15T05:55:33.170Z,90.38
2022-11-15T05:56:33.151Z,90.48
2022-11-15T05:57:33.190Z,90.48
2022-11-15T05:58:33.146Z,90.48
2022-11-15T05:59:33.126Z,90.48
2022-11-15T06:00:33.112Z,90.48
2022-11-15T06:01:33.372Z,90.59
2022-11-15T06:02:33.132Z,90.59
2022-11-15T06:03:33.364Z,90.48
2022-11-15T06:04:33.068Z,90.48
2022-11-15T06:05:33.059Z,90.59
2022-11-15T06:06:33.051Z,90.59
2022-11-15T06:07:33.195Z,90.59
2022-11-15T06:08:33.318Z,90.59
2022-11-15T06:09:33.057Z,90.69
2022-11-15T06:10:33.010Z,90.69
2022-11-15T06:11:33.001Z,90.69
2022-11-15T06:12:32.975Z,90.79
2022-11-15T06:13:33.549Z,90.89
2022-11-15T06:14:32.976Z,90.89
2022-11-15T06:15:33.275Z,90.89
2022-11-15T06:16:35.495Z,90.99
2022-11-15T06:17:32.982Z,91.09
2022-11-15T06:18:32.929Z,91.09
2022-11-15T06:19:32.923Z,91.20
2022-11-15T06:20:32.917Z,91.20
2022-11-15T06:21:32.945Z,91.20
2022-11-15T06:22:32.913Z,91.30
2022-11-15T06:23:33.331Z,91.30
2022-11-15T06:24:32.865Z,91.40
2022-11-15T06:25:32.874Z,91.44
2022-11-15T06:26:32.837Z,91.55
2022-11-15T06:27:32.862Z,91.65
2022-11-15T06:28:33.100Z,91.75
2022-11-15T06:29:32.811Z,91.85
2022-11-15T06:30:32.806Z,92.05
2022-11-15T06:31:32.816Z,92.26
2022-11-15T06:32:32.841Z,92.50
2022-11-15T06:33:33.128Z,92.61
2022-11-15T06:34:32.762Z,92.71
2022-11-15T06:35:32.745Z,92.91
2022-11-15T06:36:32.749Z,93.02
2022-11-15T06:37:32.748Z,93.12
2022-11-15T06:38:32.718Z,93.22
2022-11-15T06:39:32.739Z,93.22
2022-11-15T06:40:32.707Z,93.32
2022-11-15T06:41:32.698Z,93.22
2022-11-15T06:42:32.680Z,93.22
2022-11-15T06:43:32.967Z,93.32
2022-11-15T06:44:32.656Z,93.32
2022-11-15T06:45:32.674Z,93.43
2022-11-15T06:46:32.624Z,93.32
2022-11-15T06:47:32.622Z,93.32
2022-11-15T06:48:32.613Z,93.22
2022-11-15T06:49:32.626Z,93.12
2022-11-15T06:50:32.875Z,93.02
2022-11-15T06:51:32.616Z,92.91
2022-11-15T06:52:32.611Z,92.91
2022-11-15T06:53:32.986Z,92.81
2022-11-15T06:54:32.569Z,92.81
2022-11-15T06:55:32.550Z,92.67
2022-11-15T06:56:32.529Z,92.67
2022-11-15T06:57:32.848Z,92.57
2022-11-15T06:58:32.518Z,92.67
2022-11-15T06:59:35.208Z,92.57
2022-11-15T07:00:32.487Z,92.57
2022-11-15T07:01:32.496Z,92.46
2022-11-15T07:02:32.457Z,92.46
2022-11-15T07:03:32.919Z,92.77
2022-11-15T07:04:32.719Z,93.07
2022-11-15T07:05:32.440Z,93.07
2022-11-15T07:06:32.470Z,93.18
2022-11-15T07:07:32.582Z,93.28
2022-11-15T07:08:32.410Z,93.38
2022-11-15T07:09:32.471Z,93.28
2022-11-15T07:10:32.376Z,93.28
2022-11-15T07:11:32.392Z,93.07
2022-11-15T07:12:32.383Z,92.87
2022-11-15T07:13:32.721Z,92.77
2022-11-15T07:14:32.349Z,92.52
2022-11-15T07:15:32.363Z,92.32
2022-11-15T07:16:32.318Z,92.11
2022-11-15T07:17:32.617Z,92.01
2022-11-15T07:18:32.313Z,91.91
2022-11-15T07:19:32.297Z,91.81
2022-11-15T07:20:32.299Z,91.71
2022-11-15T07:21:32.542Z,91.66
2022-11-15T07:22:32.259Z,91.46
2022-11-15T07:23:32.795Z,91.46
2022-11-15T07:24:32.247Z,91.46
2022-11-15T07:25:32.263Z,91.36
2022-11-15T07:26:32.221Z,91.36
2022-11-15T07:27:32.318Z,91.36
2022-11-15T07:28:32.192Z,91.26
2022-11-15T07:29:32.483Z,91.16
2022-11-15T07:30:32.186Z,91.16
2022-11-15T07:31:32.218Z,91.05
2022-11-15T07:32:32.177Z,91.05
2022-11-15T07:33:32.614Z,90.95
2022-11-15T07:34:32.163Z,90.95
2022-11-15T07:35:32.134Z,90.85
2022-11-15T07:36:32.113Z,90.85
2022-11-15T07:37:32.127Z,90.75
2022-11-15T07:38:32.092Z,90.75
2022-11-15T07:39:32.147Z,90.70
2022-11-15T07:40:32.084Z,91.01
2022-11-15T07:41:32.071Z,91.42
2022-11-15T07:42:32.082Z,91.66
2022-11-15T07:43:32.362Z,91.97
2022-11-15T07:44:32.036Z,92.58
2022-11-15T07:45:32.078Z,92.99
2022-11-15T07:46:32.041Z,93.90
2022-11-15T07:47:32.286Z,94.52
2022-11-15T07:48:42.660Z,94.92
2022-11-15T07:49:31.984Z,95.28
2022-11-15T07:50:31.973Z,95.98
2022-11-15T07:51:31.985Z,96.39
2022-11-15T07:52:31.993Z,96.91
2022-11-15T07:53:32.409Z,97.31
2022-11-15T07:54:32.225Z,97.52
2022-11-15T07:55:31.926Z,97.77
2022-11-15T07:56:31.916Z,97.92
2022-11-15T07:57:31.953Z,97.97
2022-11-15T07:58:31.889Z,98.07
2022-11-15T07:59:31.882Z,97.97
2022-11-15T08:00:31.872Z,98.07
2022-11-15T08:01:32.098Z,97.97
2022-11-15T08:02:32.056Z,97.97
2022-11-15T08:03:32.142Z,97.97
2022-11-15T08:04:31.833Z,97.97
2022-11-15T08:05:31.857Z,97.97
2022-11-15T08:06:32.538Z,97.82
2022-11-15T08:07:32.263Z,97.72
2022-11-15T08:08:31.854Z,97.62
2022-11-15T08:09:31.917Z,97.52
2022-11-15T08:10:35.270Z,97.52
2022-11-15T08:11:32.600Z,97.21
2022-11-15T08:12:31.896Z,97.00
2022-11-15T08:13:32.135Z,96.80
2022-11-15T08:14:31.770Z,96.60
2022-11-15T08:15:31.870Z,96.39
2022-11-15T08:16:31.712Z,96.30
2022-11-15T08:17:32.494Z,96.09
2022-11-15T08:18:31.752Z,95.74
2022-11-15T08:19:32.054Z,95.64
2022-11-15T08:20:31.661Z,95.53
2022-11-15T08:21:31.712Z,95.33
2022-11-15T08:22:31.656Z,95.33
2022-11-15T08:23:32.065Z,95.23
2022-11-15T08:24:31.666Z,94.72
2022-11-15T08:25:31.604Z,94.42
2022-11-15T08:26:31.606Z,94.42
2022-11-15T08:27:31.684Z,94.11
2022-11-15T08:28:31.593Z,93.80
2022-11-15T08:29:31.569Z,93.15
2022-11-15T08:30:31.594Z,92.74
2022-11-15T08:31:31.863Z,92.54
2022-11-15T08:32:31.667Z,91.99
2022-11-15T08:33:31.871Z,91.27
2022-11-15T08:34:31.535Z,90.46
2022-11-15T08:35:31.502Z,89.50
2022-11-15T08:36:39.464Z,89.09
2022-11-15T08:37:31.489Z,89.30
2022-11-15T08:38:32.341Z,89.09
2022-11-15T08:39:31.513Z,88.48
2022-11-15T08:40:31.594Z,88.18
2022-11-15T08:41:31.469Z,88.28
2022-11-15T08:42:31.456Z,87.77
2022-11-15T08:43:31.667Z,87.77
2022-11-15T08:44:31.444Z,87.43
2022-11-15T08:45:31.735Z,86.92
2022-11-15T08:46:31.399Z,86.41
2022-11-15T08:47:31.445Z,85.66
2022-11-15T08:48:31.812Z,84.84
2022-11-15T08:49:31.414Z,84.74
2022-11-15T08:50:31.360Z,84.50
2022-11-15T08:51:31.385Z,83.99
2022-11-15T08:52:31.814Z,83.18
2022-11-15T08:53:31.318Z,82.84
2022-11-15T08:54:31.316Z,82.67
2022-11-15T08:55:31.369Z,83.08
2022-11-15T08:56:31.298Z,82.98
2022-11-15T08:57:31.319Z,82.87
2022-11-15T08:58:31.586Z,83.08
2022-11-15T08:59:31.670Z,82.98
2022-11-15T09:00:31.263Z,81.96
2022-11-15T09:01:31.340Z,81.86
2022-11-15T09:02:31.956Z,81.62
2022-11-15T09:03:31.344Z,80.87
2022-11-15T09:04:31.224Z,79.85
2022-11-15T09:05:31.217Z,80.36
2022-11-15T09:06:31.527Z,80.16
2022-11-15T09:07:32.148Z,79.25
2022-11-15T09:08:48.175Z,78.84
2022-11-15T09:09:31.303Z,78.40
2022-11-15T09:10:31.169Z,77.89
2022-11-15T09:11:31.166Z,78.06
2022-11-15T09:12:31.196Z,77.89
2022-11-15T09:13:31.395Z,77.89
2022-11-15T09:14:31.113Z,78.23
2022-11-15T09:15:31.173Z,78.03
2022-11-15T09:16:31.086Z,77.38
2022-11-15T09:17:31.064Z,76.87
2022-11-15T09:18:31.271Z,76.87
2022-11-15T09:19:31.059Z,76.87
2022-11-15T09:20:31.358Z,77.18
2022-11-15T09:21:31.061Z,76.78
2022-11-15T09:22:31.012Z,76.87
2022-11-15T09:23:31.007Z,77.22
2022-11-15T09:24:30.992Z,77.36
2022-11-15T09:25:30.990Z,77.66
2022-11-15T09:26:30.974Z,77.86
2022-11-15T09:27:32.127Z,77.25
2022-11-15T09:28:31.361Z,77.25
2022-11-15T09:29:31.033Z,76.75
2022-11-15T09:30:30.970Z,77.15
2022-11-15T09:31:30.909Z,76.75
2022-11-15T09:32:36.296Z,76.31
2022-11-15T09:33:31.319Z,75.59
2022-11-15T09:34:30.914Z,75.09
2022-11-15T09:35:30.875Z,74.78
2022-11-15T09:36:30.866Z,74.27
2022-11-15T09:37:30.846Z,74.78
2022-11-15T09:38:31.188Z,74.98
2022-11-15T09:39:31.163Z,74.88
2022-11-15T09:40:30.832Z,75.29
2022-11-15T09:41:30.811Z,74.88
2022-11-15T09:42:30.797Z,74.78
2022-11-15T09:43:30.807Z,74.48
2022-11-15T09:44:30.786Z,74.34
2022-11-15T09:45:30.811Z,74.17
2022-11-15T09:46:31.085Z,74.17
2022-11-15T09:47:30.752Z,74.04
2022-11-15T09:48:31.078Z,73.57
2022-11-15T09:49:30.726Z,73.66
2022-11-15T09:50:30.731Z,73.66
2022-11-15T09:51:30.768Z,73.57
2022-11-15T09:52:30.808Z,73.36
2022-11-15T09:53:51.050Z,73.77
2022-11-15T09:55:30.681Z,73.46
2022-11-15T09:56:30.732Z,73.36
2022-11-15T09:57:30.705Z,73.26
2022-11-15T09:58:31.135Z,73.06
2022-11-15T09:59:30.929Z,72.96
2022-11-15T10:00:46.069Z,72.92
2022-11-15T10:01:30.682Z,72.61
2022-11-15T10:02:30.598Z,72.85
2022-11-15T10:03:32.589Z,72.82
2022-11-15T10:04:30.691Z,72.72
2022-11-15T10:05:30.566Z,72.41
2022-11-15T10:06:30.551Z,72.61
2022-11-15T10:07:30.677Z,72.65
2022-11-15T10:08:31.202Z,72.96
2022-11-15T10:09:30.563Z,73.29
2022-11-15T10:10:30.587Z,72.85
2022-11-15T10:11:37.423Z,72.31
2022-11-15T10:12:30.515Z,71.70
2022-11-15T10:13:30.486Z,71.97
2022-11-15T10:14:30.508Z,71.16
2022-11-15T10:15:30.511Z,70.32
2022-11-15T10:16:30.478Z,70.42
2022-11-15T10:17:30.741Z,69.78
2022-11-15T10:18:30.730Z,69.04
2022-11-15T10:19:30.563Z,69.07
2022-11-15T10:20:30.416Z,68.77
2022-11-15T10:21:30.431Z,68.77
2022-11-15T10:22:30.407Z,68.97
2022-11-15T10:23:30.401Z,69.07
2022-11-15T10:24:30.377Z,69.10
2022-11-15T10:25:30.364Z,69.10
2022-11-15T10:26:30.390Z,68.80
2022-11-15T10:27:30.367Z,68.87
2022-11-15T10:28:30.737Z,68.13
2022-11-15T10:29:30.304Z,67.85
2022-11-15T10:30:30.626Z,68.23
2022-11-15T10:31:30.317Z,67.52
2022-11-15T10:32:30.299Z,67.72
2022-11-15T10:33:30.325Z,67.32
2022-11-15T10:34:30.293Z,67.01
2022-11-15T10:35:30.283Z,67.35
2022-11-15T10:36:30.275Z,67.01
2022-11-15T10:37:30.530Z,66.91
2022-11-15T10:38:30.576Z,66.07
2022-11-15T10:39:30.401Z,64.93
2022-11-15T10:40:30.207Z,64.42
2022-11-15T10:41:30.201Z,64.76
2022-11-15T10:42:30.265Z,65.16
2022-11-15T10:43:30.194Z,65.26
2022-11-15T10:44:30.467Z,65.29
2022-11-15T10:45:30.237Z,64.96
2022-11-15T10:46:46.085Z,64.35
2022-11-15T10:47:34.623Z,64.41
2022-11-15T10:48:30.458Z,65.45
2022-11-15T10:49:30.121Z,65.83
2022-11-15T10:50:30.104Z,65.50
2022-11-15T10:51:30.424Z,64.12
2022-11-15T10:52:30.564Z,62.87
2022-11-15T10:53:30.496Z,61.91
2022-11-15T10:54:30.532Z,60.49
2022-11-15T10:55:30.468Z,61.03
2022-11-15T10:56:30.502Z,61.00
2022-11-15T10:57:30.086Z,60.60
2022-11-15T10:58:30.437Z,61.66
2022-11-15T10:59:31.829Z,61.29
2022-11-15T11:00:29.995Z,61.69
2022-11-15T11:01:30.134Z,61.05
2022-11-15T11:02:29.986Z,61.08
2022-11-15T11:03:30.148Z,61.29
2022-11-15T11:04:30.349Z,62.33
2022-11-15T11:05:35.164Z,61.79
2022-11-15T11:06:30.010Z,62.23
2022-11-15T11:07:30.641Z,61.79
2022-11-15T11:08:30.517Z,60.35
2022-11-15T11:09:30.024Z,59.48
2022-11-15T11:10:51.411Z,58.27
2022-11-15T11:11:30.067Z,58.01
2022-11-15T11:12:29.977Z,57.10
2022-11-15T11:13:30.037Z,56.96
2022-11-15T11:14:29.943Z,57.89
2022-11-15T11:15:29.949Z,57.56
2022-11-15T11:16:31.966Z,57.56
2022-11-15T11:17:29.827Z,57.23
2022-11-15T11:18:30.352Z,57.46
2022-11-15T11:19:30.369Z,57.76
2022-11-15T11:20:29.848Z,57.87
2022-11-15T11:21:35.408Z,58.60
2022-11-15T11:22:29.777Z,58.40
2022-11-15T11:23:30.363Z,57.84
2022-11-15T11:24:30.016Z,56.52
2022-11-15T11:25:29.825Z,56.43
2022-11-15T11:26:31.500Z,56.93
2022-11-15T11:27:29.905Z,57.14
2022-11-15T11:28:30.152Z,57.06
2022-11-15T11:29:29.711Z,57.56
2022-11-15T11:30:29.765Z,56.85
2022-11-15T11:31:29.696Z,57.79
2022-11-15T11:32:29.681Z,58.23
2022-11-15T11:33:29.783Z,58.00
2022-11-15T11:34:29.665Z,57.69
2022-11-15T11:35:31.144Z,57.59
2022-11-15T11:36:29.663Z,57.69
2022-11-15T11:37:29.597Z,56.96
2022-11-15T11:38:29.937Z,55.72
2022-11-15T11:39:29.671Z,55.52
2022-11-15T11:40:29.638Z,55.62
2022-11-15T11:41:29.580Z,56.61
2022-11-15T11:42:29.595Z,58.15
2022-11-15T11:43:29.559Z,57.95
2022-11-15T11:44:29.537Z,57.62
2022-11-15T11:45:29.578Z,57.18
2022-11-15T11:46:29.515Z,56.35
2022-11-15T11:47:29.524Z,55.74
2022-11-15T11:48:29.852Z,55.49
2022-11-15T11:49:29.550Z,54.36
2022-11-15T11:50:29.535Z,53.14
2022-11-15T11:51:29.548Z,53.58
2022-11-15T11:52:29.594Z,53.85
2022-11-15T11:53:29.440Z,53.12
2022-11-15T11:54:30.033Z,52.24
2022-11-15T11:55:30.519Z,54.31
2022-11-15T11:56:29.449Z,54.51
2022-11-15T11:57:29.496Z,55.47
2022-11-15T11:58:29.869Z,55.90
2022-11-15T11:59:29.444Z,56.10
2022-11-15T12:00:29.409Z,56.51
2022-11-15T12:01:29.648Z,55.74
2022-11-15T12:02:29.449Z,55.01
2022-11-15T12:03:29.397Z,54.18
2022-11-15T12:04:29.370Z,53.98
2022-11-15T12:05:29.353Z,54.08
2022-11-15T12:06:29.305Z,54.05
2022-11-15T12:07:29.407Z,52.72
2022-11-15T12:08:30.092Z,51.54
2022-11-15T12:09:29.319Z,50.33
2022-11-15T12:10:29.316Z,51.18
2022-11-15T12:11:29.270Z,51.20
2022-11-15T12:12:29.269Z,53.09
2022-11-15T12:13:29.259Z,54.03
2022-11-15T12:14:29.240Z,54.13
2022-11-15T12:15:29.258Z,54.21
2022-11-15T12:16:29.225Z,53.88
2022-11-15T12:17:29.213Z,53.58
2022-11-15T12:18:29.506Z,53.45
2022-11-15T12:19:29.191Z,52.92
2022-11-15T12:20:29.288Z,52.51
2022-11-15T12:21:29.507Z,52.09
2022-11-15T12:22:29.170Z,52.09
2022-11-15T12:23:29.181Z,51.86
2022-11-15T12:24:29.146Z,51.76
2022-11-15T12:25:29.137Z,51.26
2022-11-15T12:26:29.131Z,51.16
2022-11-15T12:27:29.143Z,50.33
2022-11-15T12:28:29.286Z,50.07
2022-11-15T12:29:29.105Z,51.66
2022-11-15T12:30:29.097Z,52.92
2022-11-15T12:31:29.053Z,53.32
2022-11-15T12:32:29.124Z,53.98
2022-11-15T12:33:29.112Z,54.38
2022-11-15T12:34:29.086Z,54.18
2022-11-15T12:35:29.135Z,53.55
2022-11-15T12:36:29.003Z,53.55
2022-11-15T12:37:29.043Z,53.85
2022-11-15T12:38:29.161Z,53.65
2022-11-15T12:39:29.326Z,53.34
2022-11-15T12:40:29.001Z,53.02
2022-11-15T12:41:28.983Z,53.22
2022-11-15T12:42:28.944Z,52.39
2022-11-15T12:43:28.981Z,52.19
2022-11-15T12:44:28.992Z,51.78
2022-11-15T12:45:29.090Z,52.01
2022-11-15T12:46:29.210Z,52.64
2022-11-15T12:47:29.204Z,53.60
2022-11-15T12:48:29.109Z,53.70
2022-11-15T12:49:28.889Z,54.11
2022-11-15T12:50:28.947Z,54.61
2022-11-15T12:51:28.896Z,53.60
2022-11-15T12:52:28.874Z,53.30
2022-11-15T12:53:28.954Z,53.42